sensor_id;sensor_type;location;lat;lon;timestamp;P1;durP1;ratioP1;P2;durP2;ratioP2
20657;SDS011;10488;50.846;4.078;2023-01-15T00:01:35;10.50;;;1.73;;
20657;SDS011;10488;50.846;4.078;2023-01-15T00:04:03;9.00;;;1.90;;
20657;SDS011;10488;50.846;4.078;2023-01-15T00:06:30;9.85;;;1.98;;
20657;SDS011;10488;50.846;4.078;2023-01-15T00:08:58;7.32;;;1.60;;
20657;SDS011;10488;50.846;4.078;2023-01-15T00:11:24;5.88;;;1.55;;
20657;SDS011;10488;50.846;4.078;2023-01-15T00:13:50;9.07;;;1.63;;
20657;SDS011;10488;50.846;4.078;2023-01-15T00:16:21;9.43;;;1.73;;
20657;SDS011;10488;50.846;4.078;2023-01-15T00:21:21;11.80;;;2.03;;
20657;SDS011;10488;50.846;4.078;2023-01-15T00:23:48;18.15;;;2.35;;
20657;SDS011;10488;50.846;4.078;2023-01-15T00:26:33;7.13;;;2.05;;
20657;SDS011;10488;50.846;4.078;2023-01-15T00:29:17;9.85;;;1.92;;
20657;SDS011;10488;50.846;4.078;2023-01-15T00:31:49;10.85;;;2.05;;
20657;SDS011;10488;50.846;4.078;2023-01-15T00:34:20;12.88;;;1.70;;
20657;SDS011;10488;50.846;4.078;2023-01-15T00:36:46;6.75;;;1.50;;
20657;SDS011;10488;50.846;4.078;2023-01-15T00:39:11;9.10;;;1.40;;
20657;SDS011;10488;50.846;4.078;2023-01-15T00:41:37;10.13;;;1.92;;
20657;SDS011;10488;50.846;4.078;2023-01-15T00:44:02;12.73;;;2.22;;
20657;SDS011;10488;50.846;4.078;2023-01-15T00:46:28;12.20;;;2.00;;
20657;SDS011;10488;50.846;4.078;2023-01-15T00:48:54;8.02;;;1.80;;
20657;SDS011;10488;50.846;4.078;2023-01-15T00:51:19;8.80;;;1.52;;
20657;SDS011;10488;50.846;4.078;2023-01-15T00:53:45;12.48;;;1.70;;
20657;SDS011;10488;50.846;4.078;2023-01-15T00:56:11;13.63;;;1.90;;
20657;SDS011;10488;50.846;4.078;2023-01-15T00:58:36;11.95;;;1.95;;
20657;SDS011;10488;50.846;4.078;2023-01-15T01:01:02;8.40;;;1.33;;
20657;SDS011;10488;50.846;4.078;2023-01-15T01:03:27;5.43;;;1.50;;
20657;SDS011;10488;50.846;4.078;2023-01-15T01:05:58;5.50;;;1.80;;
20657;SDS011;10488;50.846;4.078;2023-01-15T01:08:27;8.90;;;1.98;;
20657;SDS011;10488;50.846;4.078;2023-01-15T01:11:07;10.05;;;1.52;;
20657;SDS011;10488;50.846;4.078;2023-01-15T01:13:34;6.93;;;1.83;;
20657;SDS011;10488;50.846;4.078;2023-01-15T01:16:01;5.97;;;1.52;;
20657;SDS011;10488;50.846;4.078;2023-01-15T01:18:27;13.50;;;2.30;;
20657;SDS011;10488;50.846;4.078;2023-01-15T01:20:52;10.65;;;1.95;;
20657;SDS011;10488;50.846;4.078;2023-01-15T01:23:18;6.55;;;1.55;;
20657;SDS011;10488;50.846;4.078;2023-01-15T01:25:46;10.48;;;1.95;;
20657;SDS011;10488;50.846;4.078;2023-01-15T01:28:11;18.33;;;2.28;;
20657;SDS011;10488;50.846;4.078;2023-01-15T01:30:37;13.00;;;1.80;;
20657;SDS011;10488;50.846;4.078;2023-01-15T01:33:03;10.07;;;1.80;;
20657;SDS011;10488;50.846;4.078;2023-01-15T01:35:29;11.65;;;2.17;;
20657;SDS011;10488;50.846;4.078;2023-01-15T01:37:55;8.68;;;1.60;;
20657;SDS011;10488;50.846;4.078;2023-01-15T01:40:20;14.23;;;2.45;;
20657;SDS011;10488;50.846;4.078;2023-01-15T01:42:46;9.85;;;2.05;;
20657;SDS011;10488;50.846;4.078;2023-01-15T01:45:19;7.63;;;1.73;;
20657;SDS011;10488;50.846;4.078;2023-01-15T01:47:49;9.70;;;2.20;;
20657;SDS011;10488;50.846;4.078;2023-01-15T01:50:17;7.03;;;1.58;;
20657;SDS011;10488;50.846;4.078;2023-01-15T01:52:44;5.70;;;1.42;;
20657;SDS011;10488;50.846;4.078;2023-01-15T01:55:23;17.00;;;2.40;;
20657;SDS011;10488;50.846;4.078;2023-01-15T01:57:52;9.18;;;1.50;;
20657;SDS011;10488;50.846;4.078;2023-01-15T02:00:21;9.90;;;1.50;;
20657;SDS011;10488;50.846;4.078;2023-01-15T02:02:48;9.70;;;1.85;;
20657;SDS011;10488;50.846;4.078;2023-01-15T02:05:30;11.85;;;1.80;;
20657;SDS011;10488;50.846;4.078;2023-01-15T02:07:57;15.13;;;2.38;;
20657;SDS011;10488;50.846;4.078;2023-01-15T02:10:24;11.00;;;1.70;;
20657;SDS011;10488;50.846;4.078;2023-01-15T02:13:33;11.13;;;1.80;;
20657;SDS011;10488;50.846;4.078;2023-01-15T02:15:46;9.93;;;2.63;;
20657;SDS011;10488;50.846;4.078;2023-01-15T02:20:50;7.90;;;1.67;;
20657;SDS011;10488;50.846;4.078;2023-01-15T02:23:32;11.63;;;1.63;;
20657;SDS011;10488;50.846;4.078;2023-01-15T02:29:09;9.50;;;1.98;;
20657;SDS011;10488;50.846;4.078;2023-01-15T02:31:41;11.88;;;2.17;;
20657;SDS011;10488;50.846;4.078;2023-01-15T02:34:21;9.13;;;1.92;;
20657;SDS011;10488;50.846;4.078;2023-01-15T02:37:00;15.05;;;2.00;;
20657;SDS011;10488;50.846;4.078;2023-01-15T02:39:30;7.80;;;1.40;;
20657;SDS011;10488;50.846;4.078;2023-01-15T02:41:58;11.20;;;1.70;;
20657;SDS011;10488;50.846;4.078;2023-01-15T02:44:28;10.25;;;1.77;;
20657;SDS011;10488;50.846;4.078;2023-01-15T02:46:56;5.47;;;1.23;;
20657;SDS011;10488;50.846;4.078;2023-01-15T02:49:23;7.60;;;1.90;;
20657;SDS011;10488;50.846;4.078;2023-01-15T02:54:21;13.32;;;1.80;;
20657;SDS011;10488;50.846;4.078;2023-01-15T02:56:48;7.60;;;1.55;;
20657;SDS011;10488;50.846;4.078;2023-01-15T02:59:17;8.10;;;1.20;;
20657;SDS011;10488;50.846;4.078;2023-01-15T03:01:49;7.93;;;1.88;;
20657;SDS011;10488;50.846;4.078;2023-01-15T03:07:18;9.57;;;1.85;;
20657;SDS011;10488;50.846;4.078;2023-01-15T03:09:47;9.18;;;1.60;;
20657;SDS011;10488;50.846;4.078;2023-01-15T03:12:25;7.53;;;1.48;;
20657;SDS011;10488;50.846;4.078;2023-01-15T03:15:07;10.98;;;1.48;;
20657;SDS011;10488;50.846;4.078;2023-01-15T03:18:02;12.35;;;1.65;;
20657;SDS011;10488;50.846;4.078;2023-01-15T03:20:29;9.45;;;1.50;;
20657;SDS011;10488;50.846;4.078;2023-01-15T03:22:58;8.27;;;1.42;;
20657;SDS011;10488;50.846;4.078;2023-01-15T03:25:36;6.70;;;1.52;;
20657;SDS011;10488;50.846;4.078;2023-01-15T03:28:08;3.25;;;1.08;;
20657;SDS011;10488;50.846;4.078;2023-01-15T03:30:36;6.60;;;1.40;;
20657;SDS011;10488;50.846;4.078;2023-01-15T03:33:01;6.63;;;1.63;;
20657;SDS011;10488;50.846;4.078;2023-01-15T03:38:30;8.23;;;1.73;;
20657;SDS011;10488;50.846;4.078;2023-01-15T03:43:50;8.98;;;1.63;;
20657;SDS011;10488;50.846;4.078;2023-01-15T03:54:42;5.63;;;1.38;;
20657;SDS011;10488;50.846;4.078;2023-01-15T03:57:38;11.43;;;1.90;;
20657;SDS011;10488;50.846;4.078;2023-01-15T04:00:10;5.28;;;1.27;;
20657;SDS011;10488;50.846;4.078;2023-01-15T04:02:50;5.88;;;1.40;;
20657;SDS011;10488;50.846;4.078;2023-01-15T04:05:18;10.15;;;1.70;;
20657;SDS011;10488;50.846;4.078;2023-01-15T04:07:45;8.10;;;1.50;;
20657;SDS011;10488;50.846;4.078;2023-01-15T04:10:12;10.55;;;1.52;;
20657;SDS011;10488;50.846;4.078;2023-01-15T04:12:37;5.68;;;0.95;;
20657;SDS011;10488;50.846;4.078;2023-01-15T04:15:03;3.85;;;1.10;;
20657;SDS011;10488;50.846;4.078;2023-01-15T04:17:29;16.95;;;1.67;;
20657;SDS011;10488;50.846;4.078;2023-01-15T04:19:55;10.00;;;1.50;;
20657;SDS011;10488;50.846;4.078;2023-01-15T04:22:20;9.80;;;1.77;;
20657;SDS011;10488;50.846;4.078;2023-01-15T04:24:46;8.80;;;1.48;;
20657;SDS011;10488;50.846;4.078;2023-01-15T04:27:12;8.27;;;1.67;;
20657;SDS011;10488;50.846;4.078;2023-01-15T04:29:37;6.68;;;1.25;;
20657;SDS011;10488;50.846;4.078;2023-01-15T04:32:03;5.72;;;0.93;;
20657;SDS011;10488;50.846;4.078;2023-01-15T04:34:29;8.73;;;1.38;;
20657;SDS011;10488;50.846;4.078;2023-01-15T04:36:55;6.15;;;1.27;;
20657;SDS011;10488;50.846;4.078;2023-01-15T04:39:21;8.10;;;1.75;;
20657;SDS011;10488;50.846;4.078;2023-01-15T04:41:47;8.35;;;1.20;;
20657;SDS011;10488;50.846;4.078;2023-01-15T04:44:32;8.93;;;1.35;;
20657;SDS011;10488;50.846;4.078;2023-01-15T04:46:58;6.95;;;1.25;;
20657;SDS011;10488;50.846;4.078;2023-01-15T04:49:24;7.13;;;1.27;;
20657;SDS011;10488;50.846;4.078;2023-01-15T04:51:51;8.48;;;1.00;;
20657;SDS011;10488;50.846;4.078;2023-01-15T04:54:17;3.63;;;1.10;;
20657;SDS011;10488;50.846;4.078;2023-01-15T04:56:44;8.75;;;1.08;;
20657;SDS011;10488;50.846;4.078;2023-01-15T04:59:12;5.63;;;0.93;;
20657;SDS011;10488;50.846;4.078;2023-01-15T05:01:38;2.58;;;1.10;;
20657;SDS011;10488;50.846;4.078;2023-01-15T05:04:05;4.80;;;1.00;;
20657;SDS011;10488;50.846;4.078;2023-01-15T05:06:30;7.90;;;1.35;;
20657;SDS011;10488;50.846;4.078;2023-01-15T05:08:57;9.27;;;1.10;;
20657;SDS011;10488;50.846;4.078;2023-01-15T05:11:24;5.55;;;1.15;;
20657;SDS011;10488;50.846;4.078;2023-01-15T05:13:50;5.55;;;1.00;;
20657;SDS011;10488;50.846;4.078;2023-01-15T05:18:43;9.70;;;1.17;;
20657;SDS011;10488;50.846;4.078;2023-01-15T05:21:18;10.18;;;1.27;;
20657;SDS011;10488;50.846;4.078;2023-01-15T05:23:48;5.93;;;1.08;;
20657;SDS011;10488;50.846;4.078;2023-01-15T05:26:15;2.20;;;0.82;;
20657;SDS011;10488;50.846;4.078;2023-01-15T05:28:42;8.70;;;1.48;;
20657;SDS011;10488;50.846;4.078;2023-01-15T05:31:08;8.68;;;1.55;;
20657;SDS011;10488;50.846;4.078;2023-01-15T05:33:39;8.25;;;1.55;;
20657;SDS011;10488;50.846;4.078;2023-01-15T05:36:07;10.20;;;1.85;;
20657;SDS011;10488;50.846;4.078;2023-01-15T05:38:34;6.15;;;1.27;;
20657;SDS011;10488;50.846;4.078;2023-01-15T05:41:03;5.78;;;1.30;;
20657;SDS011;10488;50.846;4.078;2023-01-15T05:43:49;4.93;;;0.98;;
20657;SDS011;10488;50.846;4.078;2023-01-15T05:46:15;10.20;;;1.42;;
20657;SDS011;10488;50.846;4.078;2023-01-15T05:48:41;5.63;;;0.95;;
20657;SDS011;10488;50.846;4.078;2023-01-15T05:51:07;6.07;;;1.08;;
20657;SDS011;10488;50.846;4.078;2023-01-15T05:53:32;5.47;;;1.20;;
20657;SDS011;10488;50.846;4.078;2023-01-15T05:56:01;4.00;;;1.25;;
20657;SDS011;10488;50.846;4.078;2023-01-15T05:58:28;5.28;;;1.23;;
20657;SDS011;10488;50.846;4.078;2023-01-15T06:00:54;4.82;;;0.77;;
20657;SDS011;10488;50.846;4.078;2023-01-15T06:03:20;3.97;;;0.70;;
20657;SDS011;10488;50.846;4.078;2023-01-15T06:05:52;4.13;;;0.77;;
20657;SDS011;10488;50.846;4.078;2023-01-15T06:08:19;5.57;;;0.68;;
20657;SDS011;10488;50.846;4.078;2023-01-15T06:10:46;2.33;;;0.77;;
20657;SDS011;10488;50.846;4.078;2023-01-15T06:13:13;2.73;;;0.80;;
20657;SDS011;10488;50.846;4.078;2023-01-15T06:15:39;3.03;;;0.90;;
20657;SDS011;10488;50.846;4.078;2023-01-15T06:18:05;2.63;;;0.83;;
20657;SDS011;10488;50.846;4.078;2023-01-15T06:20:31;4.15;;;1.05;;
20657;SDS011;10488;50.846;4.078;2023-01-15T06:22:59;3.47;;;0.75;;
20657;SDS011;10488;50.846;4.078;2023-01-15T06:25:25;8.95;;;1.30;;
20657;SDS011;10488;50.846;4.078;2023-01-15T06:27:50;7.10;;;0.95;;
20657;SDS011;10488;50.846;4.078;2023-01-15T06:30:16;7.60;;;1.27;;
20657;SDS011;10488;50.846;4.078;2023-01-15T06:32:42;3.83;;;1.25;;
20657;SDS011;10488;50.846;4.078;2023-01-15T06:35:07;7.30;;;1.17;;
20657;SDS011;10488;50.846;4.078;2023-01-15T06:37:34;9.43;;;1.23;;
20657;SDS011;10488;50.846;4.078;2023-01-15T06:39:59;8.10;;;2.00;;
20657;SDS011;10488;50.846;4.078;2023-01-15T06:42:25;14.32;;;1.70;;
20657;SDS011;10488;50.846;4.078;2023-01-15T06:45:09;8.15;;;1.40;;
20657;SDS011;10488;50.846;4.078;2023-01-15T06:47:54;10.45;;;1.15;;
20657;SDS011;10488;50.846;4.078;2023-01-15T06:50:21;11.18;;;1.67;;
20657;SDS011;10488;50.846;4.078;2023-01-15T06:52:47;7.65;;;1.52;;
20657;SDS011;10488;50.846;4.078;2023-01-15T06:55:12;9.20;;;1.67;;
20657;SDS011;10488;50.846;4.078;2023-01-15T07:00:34;8.23;;;1.80;;
20657;SDS011;10488;50.846;4.078;2023-01-15T07:03:00;8.23;;;1.67;;
20657;SDS011;10488;50.846;4.078;2023-01-15T07:05:26;11.65;;;1.85;;
20657;SDS011;10488;50.846;4.078;2023-01-15T07:07:52;8.07;;;1.63;;
20657;SDS011;10488;50.846;4.078;2023-01-15T07:10:18;15.13;;;1.65;;
20657;SDS011;10488;50.846;4.078;2023-01-15T07:12:44;5.00;;;1.27;;
20657;SDS011;10488;50.846;4.078;2023-01-15T07:15:10;6.25;;;1.52;;
20657;SDS011;10488;50.846;4.078;2023-01-15T07:17:35;11.25;;;1.88;;
20657;SDS011;10488;50.846;4.078;2023-01-15T07:20:01;15.47;;;1.87;;
20657;SDS011;10488;50.846;4.078;2023-01-15T07:22:27;8.03;;;1.53;;
20657;SDS011;10488;50.846;4.078;2023-01-15T07:24:53;14.57;;;1.85;;
20657;SDS011;10488;50.846;4.078;2023-01-15T07:27:18;13.93;;;2.40;;
20657;SDS011;10488;50.846;4.078;2023-01-15T07:29:44;18.08;;;1.92;;
20657;SDS011;10488;50.846;4.078;2023-01-15T07:32:10;9.15;;;2.13;;
20657;SDS011;10488;50.846;4.078;2023-01-15T07:34:36;10.65;;;1.90;;
20657;SDS011;10488;50.846;4.078;2023-01-15T07:37:02;8.77;;;1.60;;
20657;SDS011;10488;50.846;4.078;2023-01-15T07:39:28;11.97;;;1.20;;
20657;SDS011;10488;50.846;4.078;2023-01-15T07:41:55;16.65;;;1.95;;
20657;SDS011;10488;50.846;4.078;2023-01-15T07:44:39;16.35;;;2.15;;
20657;SDS011;10488;50.846;4.078;2023-01-15T07:47:24;9.23;;;1.83;;
20657;SDS011;10488;50.846;4.078;2023-01-15T07:50:14;9.43;;;1.75;;
20657;SDS011;10488;50.846;4.078;2023-01-15T07:52:41;17.45;;;1.65;;
20657;SDS011;10488;50.846;4.078;2023-01-15T07:55:07;7.53;;;1.23;;
20657;SDS011;10488;50.846;4.078;2023-01-15T07:57:34;15.85;;;1.80;;
20657;SDS011;10488;50.846;4.078;2023-01-15T08:00:01;11.70;;;1.42;;
20657;SDS011;10488;50.846;4.078;2023-01-15T08:02:27;5.40;;;1.30;;
20657;SDS011;10488;50.846;4.078;2023-01-15T08:04:52;8.32;;;1.50;;
20657;SDS011;10488;50.846;4.078;2023-01-15T08:07:18;7.82;;;1.42;;
20657;SDS011;10488;50.846;4.078;2023-01-15T08:09:44;7.35;;;1.40;;
20657;SDS011;10488;50.846;4.078;2023-01-15T08:12:10;10.13;;;1.43;;
20657;SDS011;10488;50.846;4.078;2023-01-15T08:14:54;8.87;;;1.40;;
20657;SDS011;10488;50.846;4.078;2023-01-15T08:17:39;9.23;;;1.60;;
20657;SDS011;10488;50.846;4.078;2023-01-15T08:20:11;11.10;;;1.67;;
20657;SDS011;10488;50.846;4.078;2023-01-15T08:22:46;10.43;;;1.70;;
20657;SDS011;10488;50.846;4.078;2023-01-15T08:25:16;7.65;;;1.15;;
20657;SDS011;10488;50.846;4.078;2023-01-15T08:27:44;10.13;;;1.40;;
20657;SDS011;10488;50.846;4.078;2023-01-15T08:30:11;9.83;;;1.90;;
20657;SDS011;10488;50.846;4.078;2023-01-15T08:32:39;10.98;;;2.28;;
20657;SDS011;10488;50.846;4.078;2023-01-15T08:35:04;11.53;;;1.87;;
20657;SDS011;10488;50.846;4.078;2023-01-15T08:37:30;12.20;;;1.40;;
20657;SDS011;10488;50.846;4.078;2023-01-15T08:39:56;13.23;;;1.43;;
20657;SDS011;10488;50.846;4.078;2023-01-15T08:42:22;4.63;;;1.52;;
20657;SDS011;10488;50.846;4.078;2023-01-15T08:44:47;11.60;;;1.80;;
20657;SDS011;10488;50.846;4.078;2023-01-15T08:47:14;5.68;;;1.20;;
20657;SDS011;10488;50.846;4.078;2023-01-15T08:49:40;9.25;;;1.52;;
20657;SDS011;10488;50.846;4.078;2023-01-15T08:52:06;5.60;;;1.07;;
20657;SDS011;10488;50.846;4.078;2023-01-15T08:54:31;5.93;;;1.20;;
20657;SDS011;10488;50.846;4.078;2023-01-15T08:56:58;8.27;;;1.17;;
20657;SDS011;10488;50.846;4.078;2023-01-15T08:59:24;10.70;;;1.90;;
20657;SDS011;10488;50.846;4.078;2023-01-15T09:01:50;7.50;;;1.10;;
20657;SDS011;10488;50.846;4.078;2023-01-15T09:04:16;11.80;;;1.40;;
20657;SDS011;10488;50.846;4.078;2023-01-15T09:06:44;9.87;;;1.47;;
20657;SDS011;10488;50.846;4.078;2023-01-15T09:09:10;5.03;;;0.90;;
20657;SDS011;10488;50.846;4.078;2023-01-15T09:11:36;8.00;;;1.20;;
20657;SDS011;10488;50.846;4.078;2023-01-15T09:14:09;7.73;;;1.37;;
20657;SDS011;10488;50.846;4.078;2023-01-15T09:16:36;5.43;;;1.60;;
20657;SDS011;10488;50.846;4.078;2023-01-15T09:19:02;4.68;;;1.05;;
20657;SDS011;10488;50.846;4.078;2023-01-15T09:21:29;3.63;;;1.35;;
20657;SDS011;10488;50.846;4.078;2023-01-15T09:23:54;5.80;;;0.90;;
20657;SDS011;10488;50.846;4.078;2023-01-15T09:26:28;6.88;;;0.90;;
20657;SDS011;10488;50.846;4.078;2023-01-15T09:28:55;11.15;;;1.38;;
20657;SDS011;10488;50.846;4.078;2023-01-15T09:31:22;6.77;;;1.17;;
20657;SDS011;10488;50.846;4.078;2023-01-15T09:33:49;4.68;;;1.23;;
20657;SDS011;10488;50.846;4.078;2023-01-15T09:36:22;7.30;;;1.13;;
20657;SDS011;10488;50.846;4.078;2023-01-15T09:38:53;4.43;;;1.07;;
20657;SDS011;10488;50.846;4.078;2023-01-15T09:41:19;3.17;;;1.10;;
20657;SDS011;10488;50.846;4.078;2023-01-15T09:44:23;9.95;;;0.95;;
20657;SDS011;10488;50.846;4.078;2023-01-15T09:47:00;4.40;;;0.90;;
20657;SDS011;10488;50.846;4.078;2023-01-15T09:55:20;3.55;;;0.77;;
20657;SDS011;10488;50.846;4.078;2023-01-15T09:57:54;5.20;;;0.60;;
20657;SDS011;10488;50.846;4.078;2023-01-15T10:00:24;6.90;;;1.30;;
20657;SDS011;10488;50.846;4.078;2023-01-15T10:02:56;7.15;;;1.00;;
20657;SDS011;10488;50.846;4.078;2023-01-15T10:08:32;3.05;;;1.15;;
20657;SDS011;10488;50.846;4.078;2023-01-15T10:11:03;4.80;;;1.10;;
20657;SDS011;10488;50.846;4.078;2023-01-15T10:13:45;5.57;;;1.10;;
20657;SDS011;10488;50.846;4.078;2023-01-15T10:16:28;6.57;;;0.70;;
20657;SDS011;10488;50.846;4.078;2023-01-15T10:18:57;3.40;;;0.85;;
20657;SDS011;10488;50.846;4.078;2023-01-15T10:21:29;4.65;;;0.77;;
20657;SDS011;10488;50.846;4.078;2023-01-15T10:35:00;2.90;;;1.17;;
20657;SDS011;10488;50.846;4.078;2023-01-15T10:37:22;6.72;;;1.13;;
20657;SDS011;10488;50.846;4.078;2023-01-15T10:45:25;2.65;;;0.90;;
20657;SDS011;10488;50.846;4.078;2023-01-15T10:50:40;7.97;;;1.50;;
20657;SDS011;10488;50.846;4.078;2023-01-15T10:55:40;2.70;;;0.93;;
20657;SDS011;10488;50.846;4.078;2023-01-15T10:58:14;3.95;;;1.05;;
20657;SDS011;10488;50.846;4.078;2023-01-15T11:00:51;10.45;;;1.75;;
20657;SDS011;10488;50.846;4.078;2023-01-15T11:03:28;8.25;;;1.23;;
20657;SDS011;10488;50.846;4.078;2023-01-15T11:05:59;6.93;;;1.10;;
20657;SDS011;10488;50.846;4.078;2023-01-15T11:08:25;5.22;;;1.23;;
20657;SDS011;10488;50.846;4.078;2023-01-15T11:10:55;4.82;;;1.25;;
20657;SDS011;10488;50.846;4.078;2023-01-15T11:13:34;6.35;;;1.20;;
20657;SDS011;10488;50.846;4.078;2023-01-15T11:16:23;7.45;;;1.73;;
20657;SDS011;10488;50.846;4.078;2023-01-15T11:19:23;4.65;;;1.58;;
20657;SDS011;10488;50.846;4.078;2023-01-15T11:22:13;4.68;;;1.40;;
20657;SDS011;10488;50.846;4.078;2023-01-15T11:27:36;12.13;;;1.33;;
20657;SDS011;10488;50.846;4.078;2023-01-15T11:30:04;3.40;;;1.05;;
20657;SDS011;10488;50.846;4.078;2023-01-15T11:32:53;7.95;;;1.05;;
20657;SDS011;10488;50.846;4.078;2023-01-15T11:35:21;6.07;;;1.10;;
20657;SDS011;10488;50.846;4.078;2023-01-15T11:37:47;6.82;;;1.25;;
20657;SDS011;10488;50.846;4.078;2023-01-15T11:40:17;5.57;;;1.33;;
20657;SDS011;10488;50.846;4.078;2023-01-15T11:42:47;5.05;;;1.10;;
20657;SDS011;10488;50.846;4.078;2023-01-15T11:45:32;6.43;;;1.05;;
20657;SDS011;10488;50.846;4.078;2023-01-15T11:51:06;5.75;;;1.75;;
20657;SDS011;10488;50.846;4.078;2023-01-15T11:53:38;7.47;;;1.60;;
20657;SDS011;10488;50.846;4.078;2023-01-15T11:56:08;4.43;;;1.50;;
20657;SDS011;10488;50.846;4.078;2023-01-15T11:58:44;5.55;;;1.05;;
20657;SDS011;10488;50.846;4.078;2023-01-15T12:01:37;5.85;;;1.50;;
20657;SDS011;10488;50.846;4.078;2023-01-15T12:04:28;4.05;;;1.15;;
20657;SDS011;10488;50.846;4.078;2023-01-15T12:07:00;4.78;;;1.00;;
20657;SDS011;10488;50.846;4.078;2023-01-15T12:17:21;4.80;;;1.20;;
20657;SDS011;10488;50.846;4.078;2023-01-15T12:22:42;10.00;;;1.50;;
20657;SDS011;10488;50.846;4.078;2023-01-15T12:27:54;5.68;;;1.50;;
20657;SDS011;10488;50.846;4.078;2023-01-15T12:33:08;3.53;;;1.08;;
20657;SDS011;10488;50.846;4.078;2023-01-15T12:35:42;6.10;;;1.20;;
20657;SDS011;10488;50.846;4.078;2023-01-15T12:38:22;4.65;;;1.80;;
20657;SDS011;10488;50.846;4.078;2023-01-15T12:40:58;5.80;;;1.40;;
20657;SDS011;10488;50.846;4.078;2023-01-15T12:43:30;5.32;;;1.05;;
20657;SDS011;10488;50.846;4.078;2023-01-15T12:46:16;7.63;;;1.02;;
20657;SDS011;10488;50.846;4.078;2023-01-15T12:51:38;7.18;;;1.63;;
20657;SDS011;10488;50.846;4.078;2023-01-15T12:54:12;2.33;;;1.13;;
20657;SDS011;10488;50.846;4.078;2023-01-15T13:05:07;3.95;;;0.93;;
20657;SDS011;10488;50.846;4.078;2023-01-15T13:07:44;4.38;;;1.17;;
20657;SDS011;10488;50.846;4.078;2023-01-15T13:10:26;2.17;;;0.60;;
20657;SDS011;10488;50.846;4.078;2023-01-15T13:13:00;8.52;;;1.63;;
20657;SDS011;10488;50.846;4.078;2023-01-15T13:15:46;3.15;;;1.00;;
20657;SDS011;10488;50.846;4.078;2023-01-15T13:18:47;4.60;;;1.20;;
20657;SDS011;10488;50.846;4.078;2023-01-15T13:21:21;3.17;;;0.90;;
20657;SDS011;10488;50.846;4.078;2023-01-15T13:29:53;1.80;;;1.02;;
20657;SDS011;10488;50.846;4.078;2023-01-15T13:32:49;4.03;;;0.90;;
20657;SDS011;10488;50.846;4.078;2023-01-15T13:35:39;5.72;;;1.13;;
20657;SDS011;10488;50.846;4.078;2023-01-15T13:38:21;3.33;;;0.90;;
20657;SDS011;10488;50.846;4.078;2023-01-15T13:40:52;3.70;;;1.10;;
20657;SDS011;10488;50.846;4.078;2023-01-15T13:45:56;3.15;;;1.15;;
20657;SDS011;10488;50.846;4.078;2023-01-15T13:48:25;5.95;;;0.93;;
20657;SDS011;10488;50.846;4.078;2023-01-15T13:51:03;4.45;;;1.23;;
20657;SDS011;10488;50.846;4.078;2023-01-15T13:53:37;5.18;;;1.52;;
20657;SDS011;10488;50.846;4.078;2023-01-15T13:56:10;4.70;;;0.93;;
20657;SDS011;10488;50.846;4.078;2023-01-15T13:58:39;5.22;;;1.25;;
20657;SDS011;10488;50.846;4.078;2023-01-15T14:06:19;5.60;;;1.08;;
20657;SDS011;10488;50.846;4.078;2023-01-15T14:08:44;5.53;;;1.00;;
20657;SDS011;10488;50.846;4.078;2023-01-15T14:14:16;3.85;;;1.00;;
20657;SDS011;10488;50.846;4.078;2023-01-15T14:25:26;7.50;;;1.30;;
20657;SDS011;10488;50.846;4.078;2023-01-15T14:40:00;3.28;;;1.20;;
20657;SDS011;10488;50.846;4.078;2023-01-15T14:42:29;5.55;;;1.15;;
20657;SDS011;10488;50.846;4.078;2023-01-15T14:47:55;7.18;;;2.15;;
20657;SDS011;10488;50.846;4.078;2023-01-15T14:58:11;7.53;;;1.50;;
20657;SDS011;10488;50.846;4.078;2023-01-15T15:00:48;4.82;;;1.40;;
20657;SDS011;10488;50.846;4.078;2023-01-15T15:03:18;3.80;;;0.90;;
20657;SDS011;10488;50.846;4.078;2023-01-15T15:05:50;3.45;;;1.38;;
20657;SDS011;10488;50.846;4.078;2023-01-15T15:08:17;1.27;;;0.82;;
20657;SDS011;10488;50.846;4.078;2023-01-15T15:10:43;4.95;;;1.48;;
20657;SDS011;10488;50.846;4.078;2023-01-15T15:13:32;4.07;;;1.40;;
20657;SDS011;10488;50.846;4.078;2023-01-15T15:16:12;5.33;;;1.20;;
20657;SDS011;10488;50.846;4.078;2023-01-15T15:21:45;2.15;;;0.98;;
20657;SDS011;10488;50.846;4.078;2023-01-15T15:24:31;4.00;;;1.00;;
20657;SDS011;10488;50.846;4.078;2023-01-15T15:27:15;7.07;;;1.33;;
20657;SDS011;10488;50.846;4.078;2023-01-15T15:29:46;1.77;;;0.90;;
20657;SDS011;10488;50.846;4.078;2023-01-15T15:32:16;2.97;;;1.38;;
20657;SDS011;10488;50.846;4.078;2023-01-15T15:34:45;7.07;;;2.65;;
20657;SDS011;10488;50.846;4.078;2023-01-15T15:37:16;3.03;;;0.95;;
20657;SDS011;10488;50.846;4.078;2023-01-15T15:39:59;5.55;;;0.95;;
20657;SDS011;10488;50.846;4.078;2023-01-15T15:45:18;4.57;;;0.70;;
20657;SDS011;10488;50.846;4.078;2023-01-15T15:51:28;6.68;;;1.27;;
20657;SDS011;10488;50.846;4.078;2023-01-15T15:54:13;6.13;;;1.55;;
20657;SDS011;10488;50.846;4.078;2023-01-15T16:01:57;4.53;;;1.10;;
20657;SDS011;10488;50.846;4.078;2023-01-15T16:04:31;3.90;;;1.10;;
20657;SDS011;10488;50.846;4.078;2023-01-15T16:06:57;2.38;;;0.98;;
20657;SDS011;10488;50.846;4.078;2023-01-15T16:09:23;5.53;;;1.30;;
20657;SDS011;10488;50.846;4.078;2023-01-15T16:11:49;5.50;;;1.40;;
20657;SDS011;10488;50.846;4.078;2023-01-15T16:14:16;1.73;;;1.00;;
20657;SDS011;10488;50.846;4.078;2023-01-15T16:16:43;1.85;;;1.25;;
20657;SDS011;10488;50.846;4.078;2023-01-15T16:19:13;6.75;;;1.73;;
20657;SDS011;10488;50.846;4.078;2023-01-15T16:21:43;5.28;;;2.00;;
20657;SDS011;10488;50.846;4.078;2023-01-15T16:24:23;5.90;;;2.42;;
20657;SDS011;10488;50.846;4.078;2023-01-15T16:26:54;10.43;;;1.98;;
20657;SDS011;10488;50.846;4.078;2023-01-15T16:29:24;3.90;;;1.70;;
20657;SDS011;10488;50.846;4.078;2023-01-15T16:31:55;2.75;;;1.63;;
20657;SDS011;10488;50.846;4.078;2023-01-15T16:34:24;6.40;;;1.50;;
20657;SDS011;10488;50.846;4.078;2023-01-15T16:36:53;3.55;;;1.35;;
20657;SDS011;10488;50.846;4.078;2023-01-15T16:41:48;7.10;;;1.57;;
20657;SDS011;10488;50.846;4.078;2023-01-15T16:44:23;3.70;;;1.10;;
20657;SDS011;10488;50.846;4.078;2023-01-15T16:47:18;3.60;;;1.05;;
20657;SDS011;10488;50.846;4.078;2023-01-15T16:49:50;1.93;;;1.10;;
20657;SDS011;10488;50.846;4.078;2023-01-15T16:52:35;4.68;;;1.20;;
20657;SDS011;10488;50.846;4.078;2023-01-15T16:58:58;4.50;;;1.20;;
20657;SDS011;10488;50.846;4.078;2023-01-15T17:01:00;3.05;;;1.00;;
20657;SDS011;10488;50.846;4.078;2023-01-15T17:03:46;3.50;;;1.15;;
20657;SDS011;10488;50.846;4.078;2023-01-15T17:06:11;3.03;;;1.85;;
20657;SDS011;10488;50.846;4.078;2023-01-15T17:08:42;4.85;;;1.50;;
20657;SDS011;10488;50.846;4.078;2023-01-15T17:14:06;3.80;;;1.40;;
20657;SDS011;10488;50.846;4.078;2023-01-15T17:16:33;5.72;;;1.70;;
20657;SDS011;10488;50.846;4.078;2023-01-15T17:18:59;7.80;;;2.90;;
20657;SDS011;10488;50.846;4.078;2023-01-15T17:21:29;8.37;;;1.97;;
20657;SDS011;10488;50.846;4.078;2023-01-15T17:23:55;5.15;;;1.90;;
20657;SDS011;10488;50.846;4.078;2023-01-15T17:26:24;8.20;;;2.50;;
20657;SDS011;10488;50.846;4.078;2023-01-15T17:28:51;11.50;;;2.00;;
20657;SDS011;10488;50.846;4.078;2023-01-15T17:33:47;7.75;;;2.92;;
20657;SDS011;10488;50.846;4.078;2023-01-15T17:36:15;7.03;;;2.63;;
20657;SDS011;10488;50.846;4.078;2023-01-15T17:38:41;9.32;;;3.78;;
20657;SDS011;10488;50.846;4.078;2023-01-15T17:41:17;12.82;;;3.03;;
20657;SDS011;10488;50.846;4.078;2023-01-15T17:43:43;9.60;;;2.53;;
20657;SDS011;10488;50.846;4.078;2023-01-15T17:46:09;8.95;;;3.13;;
20657;SDS011;10488;50.846;4.078;2023-01-15T17:48:35;8.75;;;2.70;;
20657;SDS011;10488;50.846;4.078;2023-01-15T17:51:01;9.45;;;1.90;;
20657;SDS011;10488;50.846;4.078;2023-01-15T17:53:28;7.18;;;2.15;;
20657;SDS011;10488;50.846;4.078;2023-01-15T17:55:56;6.93;;;2.38;;
20657;SDS011;10488;50.846;4.078;2023-01-15T17:58:41;8.35;;;2.38;;